Погода Перетрутовский Воротынна 2 недели

Гомельская область, Белоруссия

21 июля-03 августа
  • 21июля
    Сегодня
    +15°
    +27°
    Ясно и безоблачно
    ВремяПогодаТемператураВлажностьДавлениеВетер, м/сВероятность осадков
    00:00Ясно и безоблачно+19°C64 %748 мм0.4 м/с2 %
    03:00Ясно и безоблачно+17°C84 %748 мм0.4 м/с2 %
    06:00Ясно и безоблачно+16°C87 %747 мм0.2 м/с2 %
    09:00Практически безоблачно+22°C66 %748 мм0.6 м/с2 %
    12:00Практически безоблачно+24°C46 %747 мм1.0 м/с4 %
    15:00Ясно и безоблачно+27°C40 %747 мм1.1 м/с10 %
    18:00Небольшая облачность+26°C39 %747 мм1.3 м/с8 %
    21:00Практически безоблачно+23°C55 %746 мм0.5 м/с2 %
  • 22июля
    Понедельник
    +16°
    +28°
    Практически безоблачно
    ВремяПогодаТемператураВлажностьДавлениеВетер, м/сВероятность осадков
    00:00Ясно и безоблачно+20°C72 %747 мм0.6 м/с2 %
    03:00Ясно и безоблачно+18°C85 %747 мм0.5 м/с2 %
    06:00Ясно и безоблачно+16°C88 %747 мм0.5 м/с2 %
    09:00Ясно и безоблачно+22°C59 %747 мм0.7 м/с2 %
    12:00Практически безоблачно+25°C44 %747 мм1.2 м/с10 %
    15:00Практически безоблачно+27°C65 %748 мм1.7 м/с28 %
    18:00Практически безоблачно+26°C49 %747 мм1.7 м/с23 %
    21:00Практически безоблачно+22°C65 %748 мм0.6 м/с11 %
  • 23июля
    Вторник
    +16°
    +28°
    Небольшая облачность
    ВремяПогодаТемператураВлажностьДавлениеВетер, м/сВероятность осадков
    00:00Ясно и безоблачно+19°C86 %748 мм0.3 м/с2 %
    03:00Ясно и безоблачно+18°C95 %748 мм0.3 м/с2 %
    06:00Ясно и безоблачно+16°C95 %748 мм0.3 м/с2 %
    09:00Ясно и безоблачно+22°C66 %749 мм0.8 м/с2 %
    12:00Небольшая облачность и лёгкий дождик+25°C51 %748 мм1.3 м/с33 %
    15:00Небольшая облачность+27°C46 %748 мм1.5 м/с39 %
    18:00Практически безоблачно+26°C47 %747 мм1.6 м/с38 %
    21:00Практически безоблачно+22°C69 %748 мм0.6 м/с20 %
  • 24июля
    Среда
    +15°
    +26°
    Небольшая облачность
    ВремяПогодаТемператураВлажностьДавлениеВетер, м/сВероятность осадков
    00:00Небольшая облачность+20°C84 %748 мм0.5 м/с4 %
    03:00Небольшая облачность+18°C94 %748 мм0.3 м/с2 %
    06:00Небольшая облачность+17°C95 %747 мм0.4 м/с3 %
    09:00Небольшая облачность+21°C69 %748 мм1.0 м/с5 %
    12:00Практически безоблачно+24°C48 %747 мм1.5 м/с35 %
    15:00Небольшая облачность+26°C41 %747 мм2.0 м/с30 %
    18:00Небольшая облачность+25°C40 %746 мм2.1 м/с21 %
    21:00Ясно и безоблачно+22°C46 %747 мм0.9 м/с7 %
  • 25июля
    Четверг
    +15°
    +25°
    Облачно с прояснениями
    ВремяПогодаТемператураВлажностьДавлениеВетер, м/сВероятность осадков
    00:00Небольшая облачность+20°C50 %747 мм1.1 м/с4 %
    03:00Облачно с прояснениями+19°C57 %746 мм1.1 м/с3 %
    06:00Ясно и безоблачно+16°C65 %746 мм0.9 м/с3 %
    09:00Небольшая облачность+20°C50 %746 мм1.2 м/с6 %
    12:00Небольшая облачность+23°C32 %746 мм1.9 м/с11 %
    15:00Облачно с прояснениями+24°C28 %745 мм1.5 м/с13 %
    18:00Облачно с прояснениями+24°C30 %745 мм2.0 м/с16 %
    21:00Облачно с прояснениями+22°C44 %745 мм0.5 м/с11 %
Мы используем cookies
Соглашаюсь